Kontakt oss PDF Skriv ut

Adresse:
Kjevik flyklubb
4657 Kjevik

E-post:
post@kjevikflyklubb.no

Webmaster
R S Løvland

Kontonummer
Flyleie: 2840.32.05259

Logo

 

 
 
METAR
TAF
2021/04/14 15:38 TAF ENCN 141400Z 1415/1419 20008KT 9999 FEW040 SCT060= TAF ENHD 141400Z 1415/1420 34012KT 9999 FEW020TCU SCT050
LN-KFK
Operativ VFR-natt
VFR dag
05:34 - 21:23
Brannvakt
Inaktiv
Banner
Banner
Banner
Banner
Banner